createdAt,value
2023-08-08T00:01:18.405Z,14.53
2023-08-08T00:03:45.279Z,14.52
2023-08-08T00:06:12.190Z,14.51
2023-08-08T00:08:39.051Z,14.51
2023-08-08T00:11:06.088Z,14.51
2023-08-08T00:13:33.075Z,14.52
2023-08-08T00:16:00.197Z,14.51
2023-08-08T00:18:27.102Z,14.52
2023-08-08T00:20:54.855Z,14.51
2023-08-08T00:23:22.337Z,14.48
2023-08-08T00:25:52.162Z,14.44
2023-08-08T00:28:19.305Z,14.42
2023-08-08T00:30:46.410Z,14.40
2023-08-08T00:33:13.318Z,14.39
2023-08-08T00:35:40.245Z,14.36
2023-08-08T00:38:07.166Z,14.35
2023-08-08T00:40:34.160Z,14.34
2023-08-08T00:43:01.272Z,14.34
2023-08-08T00:45:29.423Z,14.34
2023-08-08T00:47:56.727Z,14.32
2023-08-08T00:50:24.365Z,14.26
2023-08-08T00:52:51.542Z,14.28
2023-08-08T00:55:18.764Z,14.24
2023-08-08T00:57:46.586Z,14.23
2023-08-08T01:00:13.675Z,14.20
2023-08-08T01:02:40.712Z,14.18
2023-08-08T01:05:09.269Z,14.17
2023-08-08T01:08:05.415Z,14.15
2023-08-08T01:10:37.897Z,14.15
2023-08-08T01:13:09.923Z,14.12
2023-08-08T01:15:37.843Z,14.08
2023-08-08T01:18:06.624Z,14.05
2023-08-08T01:20:34.507Z,14.00
2023-08-08T01:23:27.876Z,13.98
2023-08-08T01:25:57.914Z,13.94
2023-08-08T01:28:27.247Z,13.89
2023-08-08T01:30:56.524Z,13.85
2023-08-08T01:33:23.682Z,13.80
2023-08-08T01:35:55.811Z,13.77
2023-08-08T01:38:30.209Z,13.74
2023-08-08T01:40:58.937Z,13.67
2023-08-08T01:43:27.590Z,13.65
2023-08-08T01:45:55.223Z,13.60
2023-08-08T01:48:22.370Z,13.56
2023-08-08T01:50:49.685Z,13.50
2023-08-08T01:53:16.626Z,13.45
2023-08-08T01:55:43.969Z,13.38
2023-08-08T01:58:12.343Z,13.37
2023-08-08T02:00:39.367Z,13.33
2023-08-08T02:03:06.610Z,13.31
2023-08-08T02:05:33.972Z,13.28
2023-08-08T02:08:00.869Z,13.28
2023-08-08T02:10:27.896Z,13.26
2023-08-08T02:12:54.817Z,13.23
2023-08-08T02:15:22.039Z,13.21
2023-08-08T02:17:51.455Z,13.18
2023-08-08T02:20:19.248Z,13.17
2023-08-08T02:22:46.206Z,13.17
2023-08-08T02:25:13.385Z,13.19
2023-08-08T02:27:40.321Z,13.19
2023-08-08T02:30:11.633Z,13.21
2023-08-08T02:32:38.550Z,13.21
2023-08-08T02:35:05.893Z,13.19
2023-08-08T02:37:32.763Z,13.16
2023-08-08T02:39:59.740Z,13.13
2023-08-08T02:42:26.751Z,13.10
2023-08-08T02:44:53.741Z,13.06
2023-08-08T02:47:20.704Z,13.03
2023-08-08T02:49:47.775Z,13.01
2023-08-08T02:52:14.994Z,13.01
2023-08-08T02:54:42.046Z,12.98
2023-08-08T02:57:11.836Z,12.96
2023-08-08T02:59:39.266Z,12.93
2023-08-08T03:02:07.062Z,12.90
2023-08-08T03:04:34.887Z,12.89
2023-08-08T03:07:05.337Z,12.88
2023-08-08T03:09:33.503Z,12.84
2023-08-08T03:12:00.715Z,12.84
2023-08-08T03:14:28.065Z,12.83
2023-08-08T03:16:55.578Z,12.84
2023-08-08T03:19:23.206Z,12.84
2023-08-08T03:21:50.168Z,12.85
2023-08-08T03:24:17.361Z,12.86
2023-08-08T03:26:44.268Z,12.87
2023-08-08T03:29:11.888Z,12.88
2023-08-08T03:31:41.642Z,12.90
2023-08-08T03:34:08.609Z,12.92
2023-08-08T03:36:36.226Z,12.94
2023-08-08T03:39:04.737Z,12.96
2023-08-08T03:41:31.909Z,12.96
2023-08-08T03:43:58.992Z,12.98
2023-08-08T03:46:26.542Z,13.01
2023-08-08T03:48:54.648Z,13.03
2023-08-08T03:51:22.248Z,13.06
2023-08-08T03:53:50.340Z,13.07
2023-08-08T03:56:18.460Z,13.07
2023-08-08T03:58:45.668Z,13.11
2023-08-08T04:01:13.669Z,13.14
2023-08-08T04:03:43.316Z,13.16
2023-08-08T04:06:10.503Z,13.18
2023-08-08T04:08:37.668Z,13.21
2023-08-08T04:11:05.124Z,13.27
2023-08-08T04:13:32.399Z,13.34
2023-08-08T04:15:59.362Z,13.37
2023-08-08T04:18:26.606Z,13.36
2023-08-08T04:20:53.603Z,13.38
2023-08-08T04:23:20.666Z,13.46
2023-08-08T04:25:48.210Z,13.49
2023-08-08T04:28:15.201Z,13.49
2023-08-08T04:30:42.438Z,13.52
2023-08-08T04:33:09.753Z,13.53
2023-08-08T04:35:37.330Z,13.55
2023-08-08T04:38:04.819Z,13.64
2023-08-08T04:40:32.404Z,13.78
2023-08-08T04:42:59.483Z,13.89
2023-08-08T04:45:28.444Z,14.01
2023-08-08T04:47:55.434Z,14.09
2023-08-08T04:50:23.249Z,14.15
2023-08-08T04:52:50.951Z,14.16
2023-08-08T04:55:18.043Z,14.13
2023-08-08T04:57:45.160Z,14.09
2023-08-08T05:00:13.378Z,14.11
2023-08-08T05:02:42.489Z,14.10
2023-08-08T05:05:10.454Z,14.06
2023-08-08T05:07:39.790Z,14.09
2023-08-08T05:10:07.154Z,14.13
2023-08-08T05:12:34.875Z,14.24
2023-08-08T05:15:02.592Z,14.33
2023-08-08T05:17:32.026Z,14.39
2023-08-08T05:19:59.428Z,14.42
2023-08-08T05:22:26.779Z,14.43
2023-08-08T05:24:53.881Z,14.49
2023-08-08T05:27:20.861Z,14.59
2023-08-08T05:29:48.492Z,14.72
2023-08-08T05:32:16.291Z,14.87
2023-08-08T05:34:43.947Z,14.91
2023-08-08T05:37:17.035Z,14.94
2023-08-08T05:39:47.003Z,15.04
2023-08-08T05:42:13.986Z,15.19
2023-08-08T05:44:43.173Z,15.31
2023-08-08T05:47:10.432Z,15.35
2023-08-08T05:49:37.551Z,15.38
2023-08-08T05:52:05.157Z,15.47
2023-08-08T05:54:32.458Z,15.54
2023-08-08T05:56:59.895Z,15.52
2023-08-08T05:59:27.198Z,15.56
2023-08-08T06:01:54.485Z,15.53
2023-08-08T06:04:22.524Z,15.57
2023-08-08T06:06:50.442Z,15.57
2023-08-08T06:09:18.359Z,15.58
2023-08-08T06:11:46.014Z,15.62
2023-08-08T06:14:13.974Z,15.55
2023-08-08T06:16:41.201Z,15.50
2023-08-08T06:19:08.434Z,15.57
2023-08-08T06:21:37.273Z,15.74
2023-08-08T06:24:04.562Z,15.96
2023-08-08T06:26:31.943Z,16.21
2023-08-08T06:28:58.988Z,16.42
2023-08-08T06:31:26.097Z,16.58
2023-08-08T06:33:53.120Z,16.69
2023-08-08T06:36:20.073Z,16.82
2023-08-08T06:38:47.070Z,16.90
2023-08-08T06:41:14.218Z,17.01
2023-08-08T06:43:41.347Z,17.10
2023-08-08T06:46:08.720Z,17.17
2023-08-08T06:48:35.713Z,17.27
2023-08-08T06:51:02.713Z,17.37
2023-08-08T06:53:29.797Z,17.48
2023-08-08T06:55:56.823Z,17.60
2023-08-08T06:58:24.324Z,17.76
2023-08-08T07:00:52.294Z,17.97
2023-08-08T07:03:20.184Z,18.12
2023-08-08T07:05:48.751Z,18.24
2023-08-08T07:08:15.924Z,18.32
2023-08-08T07:10:42.918Z,18.41
2023-08-08T07:13:10.039Z,18.41
2023-08-08T07:15:37.004Z,18.39
2023-08-08T07:18:04.074Z,18.40
2023-08-08T07:20:31.159Z,18.53
2023-08-08T07:22:58.155Z,18.63
2023-08-08T07:25:25.146Z,18.66
2023-08-08T07:27:52.255Z,18.66
2023-08-08T07:30:19.477Z,18.77
2023-08-08T07:32:46.601Z,18.68
2023-08-08T07:35:13.807Z,18.60
2023-08-08T07:37:40.760Z,18.78
2023-08-08T07:40:19.169Z,18.90
2023-08-08T07:42:47.820Z,19.13
2023-08-08T07:45:15.942Z,19.35
2023-08-08T07:47:43.276Z,19.49
2023-08-08T07:50:10.888Z,19.38
2023-08-08T07:52:38.653Z,19.33
2023-08-08T07:55:06.346Z,19.46
2023-08-08T07:57:36.065Z,19.67
2023-08-08T08:00:20.122Z,19.88
2023-08-08T08:02:48.184Z,20.05
2023-08-08T08:05:15.392Z,20.14
2023-08-08T08:07:42.402Z,20.15
2023-08-08T08:10:14.289Z,20.00
2023-08-08T08:12:42.895Z,19.74
2023-08-08T08:15:10.894Z,19.45
2023-08-08T08:17:38.118Z,19.32
2023-08-08T08:20:11.928Z,19.25
2023-08-08T08:22:39.418Z,19.17
2023-08-08T08:25:09.888Z,18.96
2023-08-08T08:27:38.032Z,18.81
2023-08-08T08:30:07.935Z,18.80
2023-08-08T08:32:37.335Z,19.08
2023-08-08T08:35:07.563Z,19.09
2023-08-08T08:37:35.481Z,18.98
2023-08-08T08:40:02.864Z,18.80
2023-08-08T08:42:30.443Z,18.91
2023-08-08T08:44:59.876Z,19.49
2023-08-08T08:47:27.175Z,20.12
2023-08-08T08:49:54.234Z,20.75
2023-08-08T08:52:22.072Z,21.01
2023-08-08T08:54:49.182Z,20.83
2023-08-08T08:57:16.993Z,20.63
2023-08-08T08:59:43.830Z,20.38
2023-08-08T09:02:12.044Z,20.16
2023-08-08T09:04:39.774Z,20.09
2023-08-08T09:07:07.839Z,20.15
2023-08-08T09:09:34.834Z,20.64
2023-08-08T09:12:04.814Z,21.13
2023-08-08T09:14:32.104Z,21.25
2023-08-08T09:16:59.975Z,21.25
2023-08-08T09:19:26.999Z,21.28
2023-08-08T09:21:54.783Z,21.08
2023-08-08T09:24:22.881Z,20.87
2023-08-08T09:26:49.975Z,20.61
2023-08-08T09:29:17.083Z,20.38
2023-08-08T09:31:45.187Z,20.18
2023-08-08T09:34:12.165Z,20.02
2023-08-08T09:36:39.649Z,20.01
2023-08-08T09:39:06.630Z,20.00
2023-08-08T09:41:33.743Z,19.88
2023-08-08T09:44:02.038Z,19.73
2023-08-08T09:46:32.560Z,19.57
2023-08-08T09:49:00.156Z,19.34
2023-08-08T09:51:28.488Z,19.20
2023-08-08T09:53:57.216Z,19.18
2023-08-08T09:56:26.711Z,19.03
2023-08-08T09:58:54.492Z,18.86
2023-08-08T10:01:22.100Z,18.75
2023-08-08T10:03:52.642Z,18.63
2023-08-08T10:06:20.473Z,18.50
2023-08-08T10:08:47.993Z,18.33
2023-08-08T10:11:15.978Z,18.10
2023-08-08T10:13:51.751Z,17.95
2023-08-08T10:16:19.836Z,17.87
2023-08-08T10:18:58.059Z,17.86
2023-08-08T10:21:26.395Z,17.84
2023-08-08T10:24:09.974Z,17.83
2023-08-08T10:26:54.975Z,17.77
2023-08-08T10:29:22.786Z,17.79
2023-08-08T10:31:54.765Z,17.91
2023-08-08T10:34:23.113Z,18.17
2023-08-08T10:36:53.521Z,18.40
2023-08-08T10:39:22.322Z,18.59
2023-08-08T10:41:50.971Z,18.66
2023-08-08T10:44:24.795Z,18.63
2023-08-08T10:46:53.646Z,18.55
2023-08-08T10:49:20.873Z,18.49
2023-08-08T10:51:49.609Z,18.56
2023-08-08T10:54:24.420Z,18.77
2023-08-08T10:56:53.349Z,19.06
2023-08-08T10:59:24.906Z,19.47
2023-08-08T11:01:53.820Z,19.76
2023-08-08T11:04:23.543Z,19.77
2023-08-08T11:06:51.539Z,19.71
2023-08-08T11:09:19.481Z,19.55
2023-08-08T11:11:46.978Z,19.37
2023-08-08T11:14:16.465Z,19.26
2023-08-08T11:16:45.911Z,19.19
2023-08-08T11:19:14.273Z,19.27
2023-08-08T11:21:42.974Z,19.40
2023-08-08T11:24:11.396Z,19.51
2023-08-08T11:26:40.676Z,19.62
2023-08-08T11:29:08.412Z,19.62
2023-08-08T11:31:36.313Z,19.53
2023-08-08T11:34:03.595Z,19.39
2023-08-08T11:36:32.809Z,19.29
2023-08-08T11:39:02.296Z,19.25
2023-08-08T11:41:29.408Z,19.22
2023-08-08T11:43:56.820Z,19.23
2023-08-08T11:46:26.031Z,19.26
2023-08-08T11:48:53.255Z,19.40
2023-08-08T11:51:20.272Z,19.92
2023-08-08T11:53:55.073Z,20.62
2023-08-08T11:56:22.774Z,21.37
2023-08-08T11:58:53.022Z,22.03
2023-08-08T12:01:22.972Z,22.47
2023-08-08T12:03:49.984Z,22.38
2023-08-08T12:06:17.816Z,22.09
2023-08-08T12:08:46.299Z,22.17
2023-08-08T12:11:14.522Z,22.85
2023-08-08T12:13:43.335Z,23.14
2023-08-08T12:16:17.007Z,23.67
2023-08-08T12:18:45.756Z,24.00
2023-08-08T12:21:12.646Z,23.71
2023-08-08T12:23:39.683Z,23.34
2023-08-08T12:26:08.555Z,23.02
2023-08-08T12:28:35.798Z,22.76
2023-08-08T12:31:02.911Z,22.48
2023-08-08T12:33:30.285Z,22.45
2023-08-08T12:35:57.103Z,22.79
2023-08-08T12:38:23.997Z,22.84
2023-08-08T12:40:51.852Z,22.65
2023-08-08T12:43:18.977Z,22.44
2023-08-08T12:45:46.956Z,22.21
2023-08-08T12:48:14.142Z,21.98
2023-08-08T12:50:41.984Z,21.76
2023-08-08T12:53:09.243Z,21.66
2023-08-08T12:55:36.390Z,21.42
2023-08-08T12:58:04.868Z,21.15
2023-08-08T13:00:31.930Z,20.97
2023-08-08T13:02:59.938Z,20.88
2023-08-08T13:05:28.635Z,20.86
2023-08-08T13:07:55.713Z,21.13
2023-08-08T13:10:22.736Z,21.68
2023-08-08T13:12:49.858Z,21.84
2023-08-08T13:15:16.759Z,21.75
2023-08-08T13:17:44.642Z,21.59
2023-08-08T13:20:13.404Z,21.37
2023-08-08T13:22:40.982Z,21.23
2023-08-08T13:25:08.077Z,21.17
2023-08-08T13:27:35.278Z,21.44
2023-08-08T13:30:02.225Z,21.77
2023-08-08T13:32:29.700Z,21.76
2023-08-08T13:34:56.592Z,22.20
2023-08-08T13:37:23.528Z,22.92
2023-08-08T13:39:50.483Z,23.48
2023-08-08T13:42:17.333Z,23.78
2023-08-08T13:44:44.190Z,24.16
2023-08-08T13:47:11.126Z,24.30
2023-08-08T13:49:38.019Z,24.15
2023-08-08T13:52:05.269Z,24.20
2023-08-08T13:54:32.270Z,24.33
2023-08-08T13:56:59.182Z,24.37
2023-08-08T13:59:26.118Z,24.46
2023-08-08T14:01:52.986Z,24.60
2023-08-08T14:04:20.318Z,24.45
2023-08-08T14:06:47.217Z,23.97
2023-08-08T14:09:14.979Z,23.51
2023-08-08T14:11:43.590Z,23.15
2023-08-08T14:14:10.410Z,22.82
2023-08-08T14:16:37.570Z,22.47
2023-08-08T14:19:04.875Z,22.16
2023-08-08T14:21:31.795Z,22.04
2023-08-08T14:23:58.698Z,21.98
2023-08-08T14:26:25.651Z,22.05
2023-08-08T14:28:52.546Z,22.03
2023-08-08T14:31:19.446Z,21.96
2023-08-08T14:33:46.337Z,21.89
2023-08-08T14:36:13.397Z,21.75
2023-08-08T14:38:40.287Z,21.62
2023-08-08T14:41:07.303Z,21.58
2023-08-08T14:43:34.584Z,21.57
2023-08-08T14:46:01.553Z,21.55
2023-08-08T14:48:28.445Z,21.57
2023-08-08T14:50:55.464Z,21.55
2023-08-08T14:53:22.427Z,21.57
2023-08-08T14:55:49.315Z,21.51
2023-08-08T14:58:16.458Z,21.37
2023-08-08T15:00:43.736Z,21.19
2023-08-08T15:03:11.451Z,21.03
2023-08-08T15:05:38.534Z,20.92
2023-08-08T15:08:05.544Z,20.79
2023-08-08T15:10:35.092Z,20.61
2023-08-08T15:13:02.891Z,20.44
2023-08-08T15:15:31.002Z,20.28
2023-08-08T15:17:58.153Z,20.09
2023-08-08T15:20:25.286Z,19.93
2023-08-08T15:22:52.227Z,19.84
2023-08-08T15:25:19.264Z,19.81
2023-08-08T15:27:46.524Z,19.78
2023-08-08T15:30:13.703Z,19.73
2023-08-08T15:32:40.624Z,19.69
2023-08-08T15:35:07.814Z,19.67
2023-08-08T15:37:35.031Z,19.61
2023-08-08T15:40:01.988Z,19.63
2023-08-08T15:42:28.842Z,19.68
2023-08-08T15:44:55.761Z,19.69
2023-08-08T15:47:22.749Z,19.66
2023-08-08T15:49:49.959Z,19.56
2023-08-08T15:52:18.358Z,19.51
2023-08-08T15:54:45.651Z,19.49
2023-08-08T15:57:12.780Z,19.42
2023-08-08T15:59:43.394Z,19.26
2023-08-08T16:02:11.200Z,19.11
2023-08-08T16:04:38.668Z,18.99
2023-08-08T16:07:05.778Z,18.86
2023-08-08T16:09:32.881Z,18.75
2023-08-08T16:12:00.150Z,18.67
2023-08-08T16:14:27.975Z,18.60
2023-08-08T16:16:54.862Z,18.55
2023-08-08T16:19:23.093Z,18.50
2023-08-08T16:21:50.057Z,18.47
2023-08-08T16:24:16.955Z,18.43
2023-08-08T16:26:43.874Z,18.38
2023-08-08T16:29:10.926Z,18.33
2023-08-08T16:31:39.929Z,18.25
2023-08-08T16:34:06.811Z,18.19
2023-08-08T16:36:33.822Z,18.17
2023-08-08T16:39:16.276Z,18.16
2023-08-08T16:41:45.453Z,18.17
2023-08-08T16:44:12.314Z,18.20
2023-08-08T16:46:39.138Z,18.21
2023-08-08T16:49:08.805Z,18.21
2023-08-08T16:51:36.288Z,18.21
2023-08-08T16:54:03.363Z,18.21
2023-08-08T16:56:31.367Z,18.21
2023-08-08T16:58:59.183Z,18.19
2023-08-08T17:01:26.285Z,18.16
2023-08-08T17:03:53.338Z,18.13
2023-08-08T17:06:20.231Z,18.07
2023-08-08T17:08:47.361Z,18.02
2023-08-08T17:11:14.577Z,17.95
2023-08-08T17:13:41.579Z,17.90
2023-08-08T17:16:08.529Z,17.83
2023-08-08T17:18:35.416Z,17.76
2023-08-08T17:21:02.592Z,17.70
2023-08-08T17:23:29.497Z,17.64
2023-08-08T17:25:56.352Z,17.57
2023-08-08T17:28:23.236Z,17.50
2023-08-08T17:30:50.347Z,17.43
2023-08-08T17:33:17.233Z,17.38
2023-08-08T17:35:46.245Z,17.32
2023-08-08T17:38:13.082Z,17.23
2023-08-08T17:40:40.114Z,17.17
2023-08-08T17:43:08.007Z,17.11
2023-08-08T17:45:35.656Z,17.04
2023-08-08T17:48:02.965Z,16.96
2023-08-08T17:50:29.994Z,16.90
2023-08-08T17:52:57.854Z,16.84
2023-08-08T17:55:24.878Z,16.78
2023-08-08T17:57:51.770Z,16.72
2023-08-08T18:00:18.951Z,16.63
2023-08-08T18:02:45.799Z,16.57
2023-08-08T18:05:14.568Z,16.52
2023-08-08T18:07:42.016Z,16.45
2023-08-08T18:10:09.381Z,16.36
2023-08-08T18:12:36.322Z,16.22
2023-08-08T18:15:04.005Z,16.11
2023-08-08T18:17:31.081Z,16.00
2023-08-08T18:19:58.410Z,15.91
2023-08-08T18:22:25.270Z,15.80
2023-08-08T18:24:52.196Z,15.70
2023-08-08T18:27:19.134Z,15.59
2023-08-08T18:29:46.068Z,15.49
2023-08-08T18:32:14.975Z,15.38
2023-08-08T18:34:42.991Z,15.27
2023-08-08T18:37:10.117Z,15.19
2023-08-08T18:39:37.751Z,15.09
2023-08-08T18:42:04.830Z,15.01
2023-08-08T18:44:31.931Z,14.94
2023-08-08T18:47:01.187Z,14.87
2023-08-08T18:49:28.220Z,14.78
2023-08-08T18:51:55.094Z,14.70
2023-08-08T18:54:22.138Z,14.64
2023-08-08T18:56:49.173Z,14.57
2023-08-08T18:59:18.792Z,14.51
2023-08-08T19:01:45.814Z,14.47
2023-08-08T19:04:14.430Z,14.42
2023-08-08T19:06:41.568Z,14.39
2023-08-08T19:09:09.687Z,14.34
2023-08-08T19:11:37.686Z,14.29
2023-08-08T19:14:05.259Z,14.23
2023-08-08T19:16:32.513Z,14.16
2023-08-08T19:18:59.459Z,14.14
2023-08-08T19:21:27.872Z,14.13
2023-08-08T19:23:54.962Z,14.12
2023-08-08T19:26:22.426Z,14.10
2023-08-08T19:28:50.246Z,14.06
2023-08-08T19:31:19.441Z,14.01
2023-08-08T19:33:59.666Z,13.96
2023-08-08T19:36:33.635Z,13.93
2023-08-08T19:39:00.560Z,13.93
2023-08-08T19:41:27.688Z,13.95
2023-08-08T19:43:55.728Z,13.98
2023-08-08T19:46:23.009Z,14.02
2023-08-08T19:48:50.257Z,14.06
2023-08-08T19:51:17.244Z,14.12
2023-08-08T19:53:44.751Z,14.17
2023-08-08T19:56:11.750Z,14.21
2023-08-08T19:58:38.769Z,14.29
2023-08-08T20:01:05.685Z,14.33
2023-08-08T20:03:33.653Z,14.36
2023-08-08T20:06:01.987Z,14.35
2023-08-08T20:08:30.003Z,14.36
2023-08-08T20:10:57.160Z,14.36
2023-08-08T20:13:27.053Z,14.37
2023-08-08T20:15:55.012Z,14.38
2023-08-08T20:18:22.447Z,14.38
2023-08-08T20:20:50.856Z,14.37
2023-08-08T20:23:17.826Z,14.35
2023-08-08T20:25:44.925Z,14.34
2023-08-08T20:28:11.874Z,14.33
2023-08-08T20:30:41.447Z,14.33
2023-08-08T20:33:09.022Z,14.33
2023-08-08T20:35:35.901Z,14.33
2023-08-08T20:38:02.998Z,14.32
2023-08-08T20:40:30.084Z,14.34
2023-08-08T20:42:57.239Z,14.38
2023-08-08T20:45:24.249Z,14.39
2023-08-08T20:47:51.222Z,14.43
2023-08-08T20:50:18.283Z,14.46
2023-08-08T20:52:45.306Z,14.50
2023-08-08T20:55:12.361Z,14.55
2023-08-08T20:57:39.242Z,14.60
2023-08-08T21:00:06.869Z,14.65
2023-08-08T21:02:33.919Z,14.70
2023-08-08T21:05:00.798Z,14.74
2023-08-08T21:07:27.805Z,14.77
2023-08-08T21:09:54.655Z,14.82
2023-08-08T21:12:22.130Z,14.89
2023-08-08T21:14:49.076Z,14.98
2023-08-08T21:17:16.153Z,15.07
2023-08-08T21:19:43.033Z,15.11
2023-08-08T21:22:10.015Z,15.16
2023-08-08T21:24:36.824Z,15.21
2023-08-08T21:27:04.579Z,15.29
2023-08-08T21:29:31.852Z,15.39
2023-08-08T21:31:58.680Z,15.45
2023-08-08T21:34:25.580Z,15.52
2023-08-08T21:36:52.484Z,15.58
2023-08-08T21:39:19.295Z,15.64
2023-08-08T21:41:46.248Z,15.71
2023-08-08T21:44:13.128Z,15.77
2023-08-08T21:46:40.198Z,15.82
2023-08-08T21:49:07.290Z,15.84
2023-08-08T21:51:34.204Z,15.84
2023-08-08T21:54:01.188Z,15.82
2023-08-08T21:56:28.069Z,15.80
2023-08-08T21:58:54.930Z,15.78
2023-08-08T22:01:21.885Z,15.75
2023-08-08T22:03:49.218Z,15.72
2023-08-08T22:06:16.432Z,15.68
2023-08-08T22:08:43.506Z,15.63
2023-08-08T22:11:10.730Z,15.60
2023-08-08T22:13:37.907Z,15.59
2023-08-08T22:16:05.310Z,15.57
2023-08-08T22:18:32.361Z,15.55
2023-08-08T22:20:59.435Z,15.53
2023-08-08T22:23:26.590Z,15.50
2023-08-08T22:25:53.490Z,15.44
2023-08-08T22:28:20.351Z,15.38
2023-08-08T22:30:50.555Z,15.30
2023-08-08T22:33:19.554Z,15.17
2023-08-08T22:35:46.421Z,15.03
2023-08-08T22:38:13.266Z,14.93
2023-08-08T22:40:40.351Z,14.87
2023-08-08T22:43:07.268Z,14.82
2023-08-08T22:45:34.167Z,14.78
2023-08-08T22:48:01.297Z,14.73
2023-08-08T22:50:28.150Z,14.69
2023-08-08T22:52:55.011Z,14.67
2023-08-08T22:55:22.114Z,14.64
2023-08-08T22:57:49.002Z,14.64
2023-08-08T23:00:16.833Z,14.65
2023-08-08T23:02:43.753Z,14.64
2023-08-08T23:05:10.673Z,14.61
2023-08-08T23:07:37.589Z,14.58
2023-08-08T23:10:05.057Z,14.57
2023-08-08T23:12:32.165Z,14.55
2023-08-08T23:14:59.124Z,14.54
2023-08-08T23:17:25.968Z,14.52
2023-08-08T23:19:52.932Z,14.52
2023-08-08T23:22:19.972Z,14.51
2023-08-08T23:24:46.909Z,14.47
2023-08-08T23:27:13.900Z,14.42
2023-08-08T23:29:40.712Z,14.39
2023-08-08T23:32:07.689Z,14.38
2023-08-08T23:34:35.188Z,14.35
2023-08-08T23:37:02.502Z,14.31
2023-08-08T23:39:29.560Z,14.28
2023-08-08T23:41:56.540Z,14.24
2023-08-08T23:44:23.867Z,14.21
2023-08-08T23:46:51.070Z,14.19
2023-08-08T23:49:18.673Z,14.19
2023-08-08T23:51:45.985Z,14.16
2023-08-08T23:54:13.484Z,14.14
2023-08-08T23:56:42.482Z,14.11
2023-08-08T23:59:10.134Z,14.03
